sensor_id;sensor_type;location;lat;lon;timestamp;P1;durP1;ratioP1;P2;durP2;ratioP2
77838;SDS011;67034;43.226;27.932;2023-05-07T00:02:25;4.20;;;2.13;;
77838;SDS011;67034;43.226;27.932;2023-05-07T00:04:51;4.18;;;2.10;;
77838;SDS011;67034;43.226;27.932;2023-05-07T00:07:17;2.30;;;1.70;;
77838;SDS011;67034;43.226;27.932;2023-05-07T00:09:43;2.75;;;1.90;;
77838;SDS011;67034;43.226;27.932;2023-05-07T00:12:09;5.78;;;2.00;;
77838;SDS011;67034;43.226;27.932;2023-05-07T00:14:35;4.07;;;2.00;;
77838;SDS011;67034;43.226;27.932;2023-05-07T00:17:00;2.83;;;1.83;;
77838;SDS011;67034;43.226;27.932;2023-05-07T00:19:28;7.13;;;2.00;;
77838;SDS011;67034;43.226;27.932;2023-05-07T00:21:53;5.60;;;2.55;;
77838;SDS011;67034;43.226;27.932;2023-05-07T00:24:20;2.80;;;1.98;;
77838;SDS011;67034;43.226;27.932;2023-05-07T00:26:46;4.78;;;2.15;;
77838;SDS011;67034;43.226;27.932;2023-05-07T00:29:12;3.75;;;1.90;;
77838;SDS011;67034;43.226;27.932;2023-05-07T00:31:37;4.32;;;2.20;;
77838;SDS011;67034;43.226;27.932;2023-05-07T00:34:03;3.80;;;2.45;;
77838;SDS011;67034;43.226;27.932;2023-05-07T00:36:30;3.50;;;2.22;;
77838;SDS011;67034;43.226;27.932;2023-05-07T00:38:56;3.60;;;2.22;;
77838;SDS011;67034;43.226;27.932;2023-05-07T00:41:25;3.13;;;2.08;;
77838;SDS011;67034;43.226;27.932;2023-05-07T00:43:51;5.07;;;2.42;;
77838;SDS011;67034;43.226;27.932;2023-05-07T00:46:17;3.15;;;1.90;;
77838;SDS011;67034;43.226;27.932;2023-05-07T00:48:44;4.20;;;2.17;;
77838;SDS011;67034;43.226;27.932;2023-05-07T00:51:10;3.97;;;2.13;;
77838;SDS011;67034;43.226;27.932;2023-05-07T00:53:38;3.60;;;2.45;;
77838;SDS011;67034;43.226;27.932;2023-05-07T00:56:05;4.07;;;2.67;;
77838;SDS011;67034;43.226;27.932;2023-05-07T00:58:31;3.13;;;2.17;;
77838;SDS011;67034;43.226;27.932;2023-05-07T01:00:57;3.08;;;2.20;;
77838;SDS011;67034;43.226;27.932;2023-05-07T01:03:23;3.58;;;2.33;;
77838;SDS011;67034;43.226;27.932;2023-05-07T01:05:49;3.38;;;2.25;;
77838;SDS011;67034;43.226;27.932;2023-05-07T01:08:15;6.32;;;2.40;;
77838;SDS011;67034;43.226;27.932;2023-05-07T01:10:43;3.63;;;1.92;;
77838;SDS011;67034;43.226;27.932;2023-05-07T01:13:10;4.18;;;2.38;;
77838;SDS011;67034;43.226;27.932;2023-05-07T01:15:37;3.38;;;2.20;;
77838;SDS011;67034;43.226;27.932;2023-05-07T01:18:03;6.18;;;2.30;;
77838;SDS011;67034;43.226;27.932;2023-05-07T01:20:29;4.82;;;2.25;;
77838;SDS011;67034;43.226;27.932;2023-05-07T01:22:57;4.25;;;2.78;;
77838;SDS011;67034;43.226;27.932;2023-05-07T01:25:22;5.97;;;2.38;;
77838;SDS011;67034;43.226;27.932;2023-05-07T01:27:49;4.40;;;2.40;;
77838;SDS011;67034;43.226;27.932;2023-05-07T01:30:15;5.20;;;1.92;;
77838;SDS011;67034;43.226;27.932;2023-05-07T01:32:43;3.75;;;2.22;;
77838;SDS011;67034;43.226;27.932;2023-05-07T01:35:14;3.00;;;2.20;;
77838;SDS011;67034;43.226;27.932;2023-05-07T01:37:43;3.08;;;2.22;;
77838;SDS011;67034;43.226;27.932;2023-05-07T01:40:11;4.13;;;2.15;;
77838;SDS011;67034;43.226;27.932;2023-05-07T01:42:38;4.88;;;2.33;;
77838;SDS011;67034;43.226;27.932;2023-05-07T01:45:05;4.15;;;2.40;;
77838;SDS011;67034;43.226;27.932;2023-05-07T01:47:31;3.47;;;2.58;;
77838;SDS011;67034;43.226;27.932;2023-05-07T01:49:58;11.98;;;2.85;;
77838;SDS011;67034;43.226;27.932;2023-05-07T01:52:25;4.60;;;2.28;;
77838;SDS011;67034;43.226;27.932;2023-05-07T01:54:52;3.88;;;2.13;;
77838;SDS011;67034;43.226;27.932;2023-05-07T01:57:19;5.35;;;2.28;;
77838;SDS011;67034;43.226;27.932;2023-05-07T01:59:45;3.65;;;2.35;;
77838;SDS011;67034;43.226;27.932;2023-05-07T02:02:11;4.75;;;2.53;;
77838;SDS011;67034;43.226;27.932;2023-05-07T02:04:37;3.63;;;2.17;;
77838;SDS011;67034;43.226;27.932;2023-05-07T02:07:02;5.22;;;1.73;;
77838;SDS011;67034;43.226;27.932;2023-05-07T02:09:28;5.07;;;2.33;;
77838;SDS011;67034;43.226;27.932;2023-05-07T02:11:54;3.88;;;2.13;;
77838;SDS011;67034;43.226;27.932;2023-05-07T02:14:21;5.80;;;2.17;;
77838;SDS011;67034;43.226;27.932;2023-05-07T02:16:46;3.88;;;2.28;;
77838;SDS011;67034;43.226;27.932;2023-05-07T02:19:12;2.95;;;2.10;;
77838;SDS011;67034;43.226;27.932;2023-05-07T02:21:38;3.22;;;2.13;;
77838;SDS011;67034;43.226;27.932;2023-05-07T02:24:04;5.18;;;2.33;;
77838;SDS011;67034;43.226;27.932;2023-05-07T02:26:30;2.72;;;1.83;;
77838;SDS011;67034;43.226;27.932;2023-05-07T02:28:56;3.58;;;2.15;;
77838;SDS011;67034;43.226;27.932;2023-05-07T02:31:23;3.58;;;2.25;;
77838;SDS011;67034;43.226;27.932;2023-05-07T02:33:48;2.65;;;2.03;;
77838;SDS011;67034;43.226;27.932;2023-05-07T02:36:14;4.03;;;2.47;;
77838;SDS011;67034;43.226;27.932;2023-05-07T02:38:40;3.67;;;1.98;;
77838;SDS011;67034;43.226;27.932;2023-05-07T02:41:06;3.63;;;2.20;;
77838;SDS011;67034;43.226;27.932;2023-05-07T02:43:31;3.10;;;2.20;;
77838;SDS011;67034;43.226;27.932;2023-05-07T02:46:00;4.63;;;2.58;;
77838;SDS011;67034;43.226;27.932;2023-05-07T02:48:29;4.97;;;2.35;;
77838;SDS011;67034;43.226;27.932;2023-05-07T02:50:54;3.47;;;1.90;;
77838;SDS011;67034;43.226;27.932;2023-05-07T02:53:20;4.78;;;2.53;;
77838;SDS011;67034;43.226;27.932;2023-05-07T02:55:46;2.55;;;1.90;;
77838;SDS011;67034;43.226;27.932;2023-05-07T02:58:11;6.43;;;2.30;;
77838;SDS011;67034;43.226;27.932;2023-05-07T03:00:37;4.47;;;2.20;;
77838;SDS011;67034;43.226;27.932;2023-05-07T03:03:03;5.57;;;2.42;;
77838;SDS011;67034;43.226;27.932;2023-05-07T03:05:30;7.30;;;2.75;;
77838;SDS011;67034;43.226;27.932;2023-05-07T03:07:56;4.13;;;2.42;;
77838;SDS011;67034;43.226;27.932;2023-05-07T03:10:21;6.47;;;2.28;;
77838;SDS011;67034;43.226;27.932;2023-05-07T03:12:47;4.80;;;2.33;;
77838;SDS011;67034;43.226;27.932;2023-05-07T03:15:13;3.15;;;2.10;;
77838;SDS011;67034;43.226;27.932;2023-05-07T03:17:38;6.90;;;2.20;;
77838;SDS011;67034;43.226;27.932;2023-05-07T03:20:05;3.75;;;2.38;;
77838;SDS011;67034;43.226;27.932;2023-05-07T03:22:33;4.18;;;2.78;;
77838;SDS011;67034;43.226;27.932;2023-05-07T03:24:59;7.07;;;2.53;;
77838;SDS011;67034;43.226;27.932;2023-05-07T03:27:25;9.10;;;2.10;;
77838;SDS011;67034;43.226;27.932;2023-05-07T03:29:50;5.38;;;2.20;;
77838;SDS011;67034;43.226;27.932;2023-05-07T03:32:16;3.17;;;1.90;;
77838;SDS011;67034;43.226;27.932;2023-05-07T03:34:42;3.92;;;2.47;;
77838;SDS011;67034;43.226;27.932;2023-05-07T03:37:07;2.90;;;2.13;;
77838;SDS011;67034;43.226;27.932;2023-05-07T03:39:37;5.07;;;2.40;;
77838;SDS011;67034;43.226;27.932;2023-05-07T03:42:03;3.35;;;2.40;;
77838;SDS011;67034;43.226;27.932;2023-05-07T03:44:29;3.08;;;2.10;;
77838;SDS011;67034;43.226;27.932;2023-05-07T03:46:54;3.00;;;2.03;;
77838;SDS011;67034;43.226;27.932;2023-05-07T03:49:20;3.80;;;1.80;;
77838;SDS011;67034;43.226;27.932;2023-05-07T03:51:46;3.95;;;2.10;;
77838;SDS011;67034;43.226;27.932;2023-05-07T03:54:11;3.90;;;2.42;;
77838;SDS011;67034;43.226;27.932;2023-05-07T03:56:38;3.83;;;2.42;;
77838;SDS011;67034;43.226;27.932;2023-05-07T03:59:05;4.72;;;2.65;;
77838;SDS011;67034;43.226;27.932;2023-05-07T04:01:30;5.03;;;2.08;;
77838;SDS011;67034;43.226;27.932;2023-05-07T04:03:56;6.07;;;2.13;;
77838;SDS011;67034;43.226;27.932;2023-05-07T04:06:22;4.22;;;2.25;;
77838;SDS011;67034;43.226;27.932;2023-05-07T04:08:48;4.15;;;2.20;;
77838;SDS011;67034;43.226;27.932;2023-05-07T04:11:13;5.63;;;2.28;;
77838;SDS011;67034;43.226;27.932;2023-05-07T04:13:40;4.75;;;2.80;;
77838;SDS011;67034;43.226;27.932;2023-05-07T04:16:06;3.45;;;2.20;;
77838;SDS011;67034;43.226;27.932;2023-05-07T04:18:32;2.83;;;1.92;;
77838;SDS011;67034;43.226;27.932;2023-05-07T04:20:57;4.43;;;2.22;;
77838;SDS011;67034;43.226;27.932;2023-05-07T04:23:23;3.88;;;2.35;;
77838;SDS011;67034;43.226;27.932;2023-05-07T04:25:50;4.45;;;2.05;;
77838;SDS011;67034;43.226;27.932;2023-05-07T04:28:15;5.78;;;2.33;;
77838;SDS011;67034;43.226;27.932;2023-05-07T04:30:43;3.30;;;2.20;;
77838;SDS011;67034;43.226;27.932;2023-05-07T04:33:08;7.07;;;2.97;;
77838;SDS011;67034;43.226;27.932;2023-05-07T04:35:34;4.13;;;2.30;;
77838;SDS011;67034;43.226;27.932;2023-05-07T04:38:00;5.13;;;2.30;;
77838;SDS011;67034;43.226;27.932;2023-05-07T04:40:26;3.90;;;2.10;;
77838;SDS011;67034;43.226;27.932;2023-05-07T04:42:52;5.35;;;2.30;;
77838;SDS011;67034;43.226;27.932;2023-05-07T04:45:18;5.00;;;2.40;;
77838;SDS011;67034;43.226;27.932;2023-05-07T04:47:45;3.45;;;2.30;;
77838;SDS011;67034;43.226;27.932;2023-05-07T04:50:11;3.88;;;2.30;;
77838;SDS011;67034;43.226;27.932;2023-05-07T04:52:36;7.13;;;1.95;;
77838;SDS011;67034;43.226;27.932;2023-05-07T04:55:02;4.35;;;2.15;;
77838;SDS011;67034;43.226;27.932;2023-05-07T04:57:28;4.43;;;2.38;;
77838;SDS011;67034;43.226;27.932;2023-05-07T04:59:54;4.45;;;2.58;;
77838;SDS011;67034;43.226;27.932;2023-05-07T05:02:20;4.78;;;2.40;;
77838;SDS011;67034;43.226;27.932;2023-05-07T05:04:47;4.60;;;2.60;;
77838;SDS011;67034;43.226;27.932;2023-05-07T05:07:12;4.40;;;2.50;;
77838;SDS011;67034;43.226;27.932;2023-05-07T05:09:38;4.53;;;2.20;;
77838;SDS011;67034;43.226;27.932;2023-05-07T05:12:04;4.30;;;2.03;;
77838;SDS011;67034;43.226;27.932;2023-05-07T05:14:32;4.43;;;2.33;;
77838;SDS011;67034;43.226;27.932;2023-05-07T05:16:58;3.83;;;2.70;;
77838;SDS011;67034;43.226;27.932;2023-05-07T05:19:23;4.20;;;2.10;;
77838;SDS011;67034;43.226;27.932;2023-05-07T05:21:50;5.93;;;2.45;;
77838;SDS011;67034;43.226;27.932;2023-05-07T05:24:16;5.25;;;2.30;;
77838;SDS011;67034;43.226;27.932;2023-05-07T05:26:42;6.05;;;2.08;;
77838;SDS011;67034;43.226;27.932;2023-05-07T05:29:07;5.40;;;2.75;;
77838;SDS011;67034;43.226;27.932;2023-05-07T05:31:33;5.40;;;2.35;;
77838;SDS011;67034;43.226;27.932;2023-05-07T05:33:59;4.93;;;2.50;;
77838;SDS011;67034;43.226;27.932;2023-05-07T05:36:25;3.75;;;2.58;;
77838;SDS011;67034;43.226;27.932;2023-05-07T05:38:52;4.00;;;2.00;;
77838;SDS011;67034;43.226;27.932;2023-05-07T05:41:18;6.78;;;2.50;;
77838;SDS011;67034;43.226;27.932;2023-05-07T05:43:43;3.97;;;2.53;;
77838;SDS011;67034;43.226;27.932;2023-05-07T05:46:09;4.70;;;2.20;;
77838;SDS011;67034;43.226;27.932;2023-05-07T05:48:36;4.93;;;2.45;;
77838;SDS011;67034;43.226;27.932;2023-05-07T05:51:21;4.53;;;2.25;;
77838;SDS011;67034;43.226;27.932;2023-05-07T05:54:07;3.78;;;2.50;;
77838;SDS011;67034;43.226;27.932;2023-05-07T05:56:51;4.35;;;2.40;;
77838;SDS011;67034;43.226;27.932;2023-05-07T05:59:35;4.35;;;2.20;;
77838;SDS011;67034;43.226;27.932;2023-05-07T06:02:20;3.22;;;2.05;;
77838;SDS011;67034;43.226;27.932;2023-05-07T06:05:04;4.00;;;2.25;;
77838;SDS011;67034;43.226;27.932;2023-05-07T06:07:49;4.97;;;2.47;;
77838;SDS011;67034;43.226;27.932;2023-05-07T06:10:36;4.38;;;2.30;;
77838;SDS011;67034;43.226;27.932;2023-05-07T06:13:21;6.75;;;2.55;;
77838;SDS011;67034;43.226;27.932;2023-05-07T06:18:50;6.20;;;2.10;;
77838;SDS011;67034;43.226;27.932;2023-05-07T06:21:35;5.13;;;2.40;;
77838;SDS011;67034;43.226;27.932;2023-05-07T06:24:19;3.70;;;2.15;;
77838;SDS011;67034;43.226;27.932;2023-05-07T06:27:05;5.20;;;2.33;;
77838;SDS011;67034;43.226;27.932;2023-05-07T06:29:49;4.05;;;2.38;;
77838;SDS011;67034;43.226;27.932;2023-05-07T06:32:34;4.32;;;2.80;;
77838;SDS011;67034;43.226;27.932;2023-05-07T06:35:18;4.93;;;2.38;;
77838;SDS011;67034;43.226;27.932;2023-05-07T06:38:03;2.80;;;2.20;;
77838;SDS011;67034;43.226;27.932;2023-05-07T06:40:48;5.03;;;2.30;;
77838;SDS011;67034;43.226;27.932;2023-05-07T06:46:19;3.85;;;2.00;;
77838;SDS011;67034;43.226;27.932;2023-05-07T06:49:03;4.45;;;2.33;;
77838;SDS011;67034;43.226;27.932;2023-05-07T06:51:48;3.53;;;2.22;;
77838;SDS011;67034;43.226;27.932;2023-05-07T06:54:33;3.38;;;2.45;;
77838;SDS011;67034;43.226;27.932;2023-05-07T06:57:17;4.13;;;2.00;;
77838;SDS011;67034;43.226;27.932;2023-05-07T07:00:03;5.10;;;2.90;;
77838;SDS011;67034;43.226;27.932;2023-05-07T07:02:50;4.43;;;2.38;;
77838;SDS011;67034;43.226;27.932;2023-05-07T07:05:35;8.68;;;2.50;;
77838;SDS011;67034;43.226;27.932;2023-05-07T07:08:19;3.33;;;2.35;;
77838;SDS011;67034;43.226;27.932;2023-05-07T07:11:05;3.70;;;2.50;;
77838;SDS011;67034;43.226;27.932;2023-05-07T07:13:49;5.68;;;2.50;;
77838;SDS011;67034;43.226;27.932;2023-05-07T07:16:35;4.63;;;2.60;;
77838;SDS011;67034;43.226;27.932;2023-05-07T07:19:20;4.75;;;2.67;;
77838;SDS011;67034;43.226;27.932;2023-05-07T07:22:04;4.43;;;2.55;;
77838;SDS011;67034;43.226;27.932;2023-05-07T07:24:49;4.43;;;2.30;;
77838;SDS011;67034;43.226;27.932;2023-05-07T07:27:35;3.70;;;2.22;;
77838;SDS011;67034;43.226;27.932;2023-05-07T07:30:20;3.67;;;2.40;;
77838;SDS011;67034;43.226;27.932;2023-05-07T07:33:05;3.17;;;2.35;;
77838;SDS011;67034;43.226;27.932;2023-05-07T07:35:50;4.85;;;2.53;;
77838;SDS011;67034;43.226;27.932;2023-05-07T07:38:34;7.68;;;2.40;;
77838;SDS011;67034;43.226;27.932;2023-05-07T07:41:19;4.63;;;2.30;;
77838;SDS011;67034;43.226;27.932;2023-05-07T07:44:05;3.40;;;2.17;;
77838;SDS011;67034;43.226;27.932;2023-05-07T07:46:50;3.90;;;2.42;;
77838;SDS011;67034;43.226;27.932;2023-05-07T07:49:36;4.68;;;2.60;;
77838;SDS011;67034;43.226;27.932;2023-05-07T07:52:20;3.58;;;2.33;;
77838;SDS011;67034;43.226;27.932;2023-05-07T07:55:06;3.20;;;2.13;;
77838;SDS011;67034;43.226;27.932;2023-05-07T07:57:50;2.55;;;1.98;;
77838;SDS011;67034;43.226;27.932;2023-05-07T08:00:35;4.07;;;2.20;;
77838;SDS011;67034;43.226;27.932;2023-05-07T08:03:19;4.43;;;2.35;;
77838;SDS011;67034;43.226;27.932;2023-05-07T08:06:05;4.32;;;2.17;;
77838;SDS011;67034;43.226;27.932;2023-05-07T08:08:50;4.90;;;2.67;;
77838;SDS011;67034;43.226;27.932;2023-05-07T08:11:34;5.00;;;2.95;;
77838;SDS011;67034;43.226;27.932;2023-05-07T08:14:19;4.20;;;2.03;;
77838;SDS011;67034;43.226;27.932;2023-05-07T08:17:03;3.78;;;2.53;;
77838;SDS011;67034;43.226;27.932;2023-05-07T08:19:48;3.20;;;2.20;;
77838;SDS011;67034;43.226;27.932;2023-05-07T08:22:34;3.30;;;2.15;;
77838;SDS011;67034;43.226;27.932;2023-05-07T08:25:18;4.35;;;2.10;;
77838;SDS011;67034;43.226;27.932;2023-05-07T08:30:48;3.05;;;2.00;;
77838;SDS011;67034;43.226;27.932;2023-05-07T08:33:32;4.18;;;2.15;;
77838;SDS011;67034;43.226;27.932;2023-05-07T08:36:17;4.10;;;2.17;;
77838;SDS011;67034;43.226;27.932;2023-05-07T08:39:04;4.75;;;2.50;;
77838;SDS011;67034;43.226;27.932;2023-05-07T08:41:49;4.75;;;2.40;;
77838;SDS011;67034;43.226;27.932;2023-05-07T08:44:38;6.28;;;3.20;;
77838;SDS011;67034;43.226;27.932;2023-05-07T08:47:24;4.13;;;3.03;;
77838;SDS011;67034;43.226;27.932;2023-05-07T08:50:22;6.97;;;2.80;;
77838;SDS011;67034;43.226;27.932;2023-05-07T08:53:07;3.90;;;2.50;;
77838;SDS011;67034;43.226;27.932;2023-05-07T08:55:53;5.72;;;2.45;;
77838;SDS011;67034;43.226;27.932;2023-05-07T08:58:37;5.10;;;2.83;;
77838;SDS011;67034;43.226;27.932;2023-05-07T09:01:22;5.57;;;2.70;;
77838;SDS011;67034;43.226;27.932;2023-05-07T09:04:06;3.90;;;2.35;;
77838;SDS011;67034;43.226;27.932;2023-05-07T09:06:51;4.35;;;2.17;;
77838;SDS011;67034;43.226;27.932;2023-05-07T09:09:35;5.10;;;2.38;;
77838;SDS011;67034;43.226;27.932;2023-05-07T09:12:22;5.90;;;3.10;;
77838;SDS011;67034;43.226;27.932;2023-05-07T09:15:07;11.02;;;3.50;;
77838;SDS011;67034;43.226;27.932;2023-05-07T09:17:52;5.40;;;3.38;;
77838;SDS011;67034;43.226;27.932;2023-05-07T09:20:36;7.18;;;3.85;;
77838;SDS011;67034;43.226;27.932;2023-05-07T09:23:21;9.73;;;3.38;;
77838;SDS011;67034;43.226;27.932;2023-05-07T09:26:06;5.88;;;3.00;;
77838;SDS011;67034;43.226;27.932;2023-05-07T09:28:57;4.80;;;2.80;;
77838;SDS011;67034;43.226;27.932;2023-05-07T09:31:41;7.10;;;3.10;;
77838;SDS011;67034;43.226;27.932;2023-05-07T09:34:25;4.75;;;2.10;;
77838;SDS011;67034;43.226;27.932;2023-05-07T09:37:10;6.22;;;3.00;;
77838;SDS011;67034;43.226;27.932;2023-05-07T09:39:56;9.13;;;3.40;;
77838;SDS011;67034;43.226;27.932;2023-05-07T09:42:40;4.93;;;2.90;;
77838;SDS011;67034;43.226;27.932;2023-05-07T09:45:26;4.82;;;2.72;;
77838;SDS011;67034;43.226;27.932;2023-05-07T09:48:11;9.75;;;3.35;;
77838;SDS011;67034;43.226;27.932;2023-05-07T09:50:59;7.32;;;3.25;;
77838;SDS011;67034;43.226;27.932;2023-05-07T09:53:46;8.85;;;3.78;;
77838;SDS011;67034;43.226;27.932;2023-05-07T09:59:15;12.95;;;3.97;;
77838;SDS011;67034;43.226;27.932;2023-05-07T10:02:02;5.57;;;3.00;;
77838;SDS011;67034;43.226;27.932;2023-05-07T10:04:47;8.10;;;3.45;;
77838;SDS011;67034;43.226;27.932;2023-05-07T10:07:35;8.43;;;3.47;;
77838;SDS011;67034;43.226;27.932;2023-05-07T10:10:19;15.98;;;5.05;;
77838;SDS011;67034;43.226;27.932;2023-05-07T10:13:04;10.65;;;4.72;;
77838;SDS011;67034;43.226;27.932;2023-05-07T10:15:53;9.95;;;3.58;;
77838;SDS011;67034;43.226;27.932;2023-05-07T10:18:40;4.90;;;3.08;;
77838;SDS011;67034;43.226;27.932;2023-05-07T10:21:25;7.22;;;3.30;;
77838;SDS011;67034;43.226;27.932;2023-05-07T10:24:12;8.25;;;3.50;;
77838;SDS011;67034;43.226;27.932;2023-05-07T10:27:04;7.43;;;3.45;;
77838;SDS011;67034;43.226;27.932;2023-05-07T10:29:54;6.53;;;3.05;;
77838;SDS011;67034;43.226;27.932;2023-05-07T10:32:48;9.40;;;3.65;;
77838;SDS011;67034;43.226;27.932;2023-05-07T10:35:38;6.07;;;2.92;;
77838;SDS011;67034;43.226;27.932;2023-05-07T10:38:24;8.77;;;4.18;;
77838;SDS011;67034;43.226;27.932;2023-05-07T10:41:09;6.30;;;3.72;;
77838;SDS011;67034;43.226;27.932;2023-05-07T10:43:54;11.52;;;4.07;;
77838;SDS011;67034;43.226;27.932;2023-05-07T10:46:38;8.10;;;3.50;;
77838;SDS011;67034;43.226;27.932;2023-05-07T10:49:22;8.25;;;3.65;;
77838;SDS011;67034;43.226;27.932;2023-05-07T10:52:12;12.25;;;4.70;;
77838;SDS011;67034;43.226;27.932;2023-05-07T10:55:18;10.85;;;4.25;;
77838;SDS011;67034;43.226;27.932;2023-05-07T11:01:11;10.02;;;4.60;;
77838;SDS011;67034;43.226;27.932;2023-05-07T11:04:12;7.72;;;4.13;;
77838;SDS011;67034;43.226;27.932;2023-05-07T11:10:23;6.38;;;3.28;;
77838;SDS011;67034;43.226;27.932;2023-05-07T11:13:43;9.68;;;4.00;;
77838;SDS011;67034;43.226;27.932;2023-05-07T11:16:28;7.90;;;3.75;;
77838;SDS011;67034;43.226;27.932;2023-05-07T11:19:14;7.10;;;3.47;;
77838;SDS011;67034;43.226;27.932;2023-05-07T11:21:58;7.10;;;3.80;;
77838;SDS011;67034;43.226;27.932;2023-05-07T11:24:42;4.60;;;3.03;;
77838;SDS011;67034;43.226;27.932;2023-05-07T11:27:29;5.78;;;3.35;;
77838;SDS011;67034;43.226;27.932;2023-05-07T11:30:16;7.05;;;3.90;;
77838;SDS011;67034;43.226;27.932;2023-05-07T11:33:02;6.20;;;3.05;;
77838;SDS011;67034;43.226;27.932;2023-05-07T11:35:47;12.30;;;3.88;;
77838;SDS011;67034;43.226;27.932;2023-05-07T11:38:34;14.88;;;4.95;;
77838;SDS011;67034;43.226;27.932;2023-05-07T11:41:22;4.70;;;3.55;;
77838;SDS011;67034;43.226;27.932;2023-05-07T11:44:18;6.95;;;3.22;;
77838;SDS011;67034;43.226;27.932;2023-05-07T11:47:02;6.40;;;3.10;;
77838;SDS011;67034;43.226;27.932;2023-05-07T11:49:47;5.80;;;2.72;;
77838;SDS011;67034;43.226;27.932;2023-05-07T11:52:33;7.70;;;3.03;;
77838;SDS011;67034;43.226;27.932;2023-05-07T11:55:18;5.80;;;3.10;;
77838;SDS011;67034;43.226;27.932;2023-05-07T11:58:02;7.18;;;3.20;;
77838;SDS011;67034;43.226;27.932;2023-05-07T12:00:52;6.95;;;3.13;;
77838;SDS011;67034;43.226;27.932;2023-05-07T12:03:39;7.53;;;2.78;;
77838;SDS011;67034;43.226;27.932;2023-05-07T12:06:28;8.20;;;3.42;;
77838;SDS011;67034;43.226;27.932;2023-05-07T12:09:12;6.00;;;2.80;;
77838;SDS011;67034;43.226;27.932;2023-05-07T12:11:57;6.63;;;3.15;;
77838;SDS011;67034;43.226;27.932;2023-05-07T12:14:47;7.03;;;3.05;;
77838;SDS011;67034;43.226;27.932;2023-05-07T12:17:33;8.70;;;2.85;;
77838;SDS011;67034;43.226;27.932;2023-05-07T12:20:18;8.07;;;3.67;;
77838;SDS011;67034;43.226;27.932;2023-05-07T12:25:47;5.90;;;3.10;;
77838;SDS011;67034;43.226;27.932;2023-05-07T12:28:36;5.35;;;3.20;;
77838;SDS011;67034;43.226;27.932;2023-05-07T12:31:21;8.88;;;3.00;;
77838;SDS011;67034;43.226;27.932;2023-05-07T12:34:07;6.85;;;3.22;;
77838;SDS011;67034;43.226;27.932;2023-05-07T12:36:52;8.13;;;3.67;;
77838;SDS011;67034;43.226;27.932;2023-05-07T12:39:37;8.70;;;3.30;;
77838;SDS011;67034;43.226;27.932;2023-05-07T12:45:10;6.07;;;3.38;;
77838;SDS011;67034;43.226;27.932;2023-05-07T12:47:54;4.65;;;3.03;;
77838;SDS011;67034;43.226;27.932;2023-05-07T12:50:40;6.60;;;3.47;;
77838;SDS011;67034;43.226;27.932;2023-05-07T12:53:25;8.20;;;3.40;;
77838;SDS011;67034;43.226;27.932;2023-05-07T12:56:10;9.63;;;3.50;;
77838;SDS011;67034;43.226;27.932;2023-05-07T12:58:57;6.30;;;3.92;;
77838;SDS011;67034;43.226;27.932;2023-05-07T13:01:43;8.45;;;4.68;;
77838;SDS011;67034;43.226;27.932;2023-05-07T13:04:28;6.63;;;3.28;;
77838;SDS011;67034;43.226;27.932;2023-05-07T13:07:13;7.07;;;3.55;;
77838;SDS011;67034;43.226;27.932;2023-05-07T13:09:58;11.30;;;3.60;;
77838;SDS011;67034;43.226;27.932;2023-05-07T13:12:42;8.18;;;3.70;;
77838;SDS011;67034;43.226;27.932;2023-05-07T13:15:27;7.85;;;4.18;;
77838;SDS011;67034;43.226;27.932;2023-05-07T13:18:11;8.27;;;3.85;;
77838;SDS011;67034;43.226;27.932;2023-05-07T13:20:56;11.02;;;4.32;;
77838;SDS011;67034;43.226;27.932;2023-05-07T13:23:41;13.23;;;3.85;;
77838;SDS011;67034;43.226;27.932;2023-05-07T13:26:25;6.60;;;2.92;;
77838;SDS011;67034;43.226;27.932;2023-05-07T13:29:10;7.35;;;3.47;;
77838;SDS011;67034;43.226;27.932;2023-05-07T13:31:55;10.85;;;4.05;;
77838;SDS011;67034;43.226;27.932;2023-05-07T13:37:24;5.88;;;3.03;;
77838;SDS011;67034;43.226;27.932;2023-05-07T13:40:10;6.03;;;3.40;;
77838;SDS011;67034;43.226;27.932;2023-05-07T13:42:56;5.15;;;3.25;;
77838;SDS011;67034;43.226;27.932;2023-05-07T13:45:42;8.32;;;3.35;;
77838;SDS011;67034;43.226;27.932;2023-05-07T13:48:26;4.50;;;2.72;;
77838;SDS011;67034;43.226;27.932;2023-05-07T13:51:12;6.88;;;3.05;;
77838;SDS011;67034;43.226;27.932;2023-05-07T13:53:56;6.97;;;3.28;;
77838;SDS011;67034;43.226;27.932;2023-05-07T13:56:43;7.65;;;2.92;;
77838;SDS011;67034;43.226;27.932;2023-05-07T13:59:28;6.35;;;2.90;;
77838;SDS011;67034;43.226;27.932;2023-05-07T14:02:12;6.18;;;3.00;;
77838;SDS011;67034;43.226;27.932;2023-05-07T14:04:57;8.23;;;3.05;;
77838;SDS011;67034;43.226;27.932;2023-05-07T14:07:41;8.52;;;3.38;;
77838;SDS011;67034;43.226;27.932;2023-05-07T14:10:26;10.10;;;3.40;;
77838;SDS011;67034;43.226;27.932;2023-05-07T14:13:12;8.13;;;3.50;;
77838;SDS011;67034;43.226;27.932;2023-05-07T14:15:56;5.95;;;3.40;;
77838;SDS011;67034;43.226;27.932;2023-05-07T14:18:40;8.48;;;4.78;;
77838;SDS011;67034;43.226;27.932;2023-05-07T14:21:24;8.10;;;4.40;;
77838;SDS011;67034;43.226;27.932;2023-05-07T14:24:09;5.32;;;2.97;;
77838;SDS011;67034;43.226;27.932;2023-05-07T14:26:54;7.93;;;3.63;;
77838;SDS011;67034;43.226;27.932;2023-05-07T14:29:40;5.13;;;3.20;;
77838;SDS011;67034;43.226;27.932;2023-05-07T14:32:24;7.93;;;3.88;;
77838;SDS011;67034;43.226;27.932;2023-05-07T14:35:09;9.43;;;3.90;;
77838;SDS011;67034;43.226;27.932;2023-05-07T14:37:53;9.50;;;3.80;;
77838;SDS011;67034;43.226;27.932;2023-05-07T14:40:38;7.80;;;3.47;;
77838;SDS011;67034;43.226;27.932;2023-05-07T14:43:22;6.72;;;3.72;;
77838;SDS011;67034;43.226;27.932;2023-05-07T14:46:08;7.63;;;3.78;;
77838;SDS011;67034;43.226;27.932;2023-05-07T14:48:53;7.90;;;3.65;;
77838;SDS011;67034;43.226;27.932;2023-05-07T14:51:37;6.70;;;3.55;;
77838;SDS011;67034;43.226;27.932;2023-05-07T14:54:22;10.38;;;4.10;;
77838;SDS011;67034;43.226;27.932;2023-05-07T14:57:08;6.68;;;3.80;;
77838;SDS011;67034;43.226;27.932;2023-05-07T14:59:53;8.93;;;3.90;;
77838;SDS011;67034;43.226;27.932;2023-05-07T15:02:39;10.18;;;3.70;;
77838;SDS011;67034;43.226;27.932;2023-05-07T15:05:23;9.02;;;3.65;;
77838;SDS011;67034;43.226;27.932;2023-05-07T15:08:08;7.10;;;4.05;;
77838;SDS011;67034;43.226;27.932;2023-05-07T15:10:52;8.23;;;4.28;;
77838;SDS011;67034;43.226;27.932;2023-05-07T15:13:37;9.00;;;3.78;;
77838;SDS011;67034;43.226;27.932;2023-05-07T15:16:21;7.50;;;3.63;;
77838;SDS011;67034;43.226;27.932;2023-05-07T15:19:07;7.28;;;3.78;;
77838;SDS011;67034;43.226;27.932;2023-05-07T15:21:52;6.53;;;4.10;;
77838;SDS011;67034;43.226;27.932;2023-05-07T15:24:37;8.13;;;4.18;;
77838;SDS011;67034;43.226;27.932;2023-05-07T15:27:21;8.90;;;3.63;;
77838;SDS011;67034;43.226;27.932;2023-05-07T15:30:06;7.43;;;4.35;;
77838;SDS011;67034;43.226;27.932;2023-05-07T15:32:54;7.97;;;4.07;;
77838;SDS011;67034;43.226;27.932;2023-05-07T15:35:39;8.05;;;4.88;;
77838;SDS011;67034;43.226;27.932;2023-05-07T15:38:24;10.43;;;4.50;;
77838;SDS011;67034;43.226;27.932;2023-05-07T15:41:08;8.82;;;3.97;;
77838;SDS011;67034;43.226;27.932;2023-05-07T15:43:53;10.30;;;4.10;;
77838;SDS011;67034;43.226;27.932;2023-05-07T15:46:38;8.18;;;4.25;;
77838;SDS011;67034;43.226;27.932;2023-05-07T15:49:22;7.90;;;4.80;;
77838;SDS011;67034;43.226;27.932;2023-05-07T15:52:08;9.95;;;4.63;;
77838;SDS011;67034;43.226;27.932;2023-05-07T15:54:57;9.10;;;4.60;;
77838;SDS011;67034;43.226;27.932;2023-05-07T15:57:42;11.45;;;6.15;;
77838;SDS011;67034;43.226;27.932;2023-05-07T16:00:27;8.32;;;5.22;;
77838;SDS011;67034;43.226;27.932;2023-05-07T16:03:12;7.75;;;4.45;;